Airfield :
LOGIN :

Register | Disclaimer

   EN    FR    IT 

 










Legend :    VFR   Marginal VFR   IFR   Intensive IFR   Very Intensive IFR
Visi :
Ceiling :
>= 8 km
>= 3000ft
5 to 8 km
1000 to 3000 ft
1500m to 5 km
500 to 1000 ft
800 to 1500m
200 to 500 ft
< 800m
< 200 ft
Symbols :   Thunderstorms  Fog  Heavy snow  Heavy precipitations  Wind > 20 kt
SIGMETs :     Misc.  Thunderstorms  Icing  Turbulence  Mountain Waves  Volcanic Ashes







- Airport Elevation : 13 ft
- IATA code : LYX
- Download approach charts


EGMD - Lydd

CURRENT METAR :
  • 270020Z AUTO 05020KT 9999 OVC010/// 14/13 Q1028

EXPIRED METARs :
  • 262350Z AUTO 04018KT 9999 BKN010/// 14/13 Q1028
  • 262320Z AUTO 04020KT 9999 OVC010/// 14/13 Q1028
  • 262250Z AUTO 04018KT 9999 OVC010/// 14/13 Q1028
  • 262220Z AUTO 05018KT 9999 BKN010/// OVC015/// 14/13 Q1028
  • 262150Z AUTO 04018KT 9999 OVC010/// 15/13 Q1028

TAF TAF EGMD
Valid from the 27 at 00:00 until the 27 at 09:00 UTC


262301Z 2700/2709 04018KT 9999 BKN010
TEMPO 2700/2709 06020G30KT
PROB40
TEMPO 2700/2707 BKN009
BECMG 2707/2709 SCT016
ATIS : +44 1797 322 422
No reported NOTAMs for that airfield.
1 SIGMET reported for the London FIR (EGTT) :
 
Severe turbulence
EGTT SIGMET 01 VALID 270010/270400 EGRR
EGTT LONDON FIR SEV TURB FCST WI N5033 W00347 - N4950 W00345 - N4933 W00800 - N5028 W00800 - N5033 W00347 SFC/FL060 STNR WKN=



MET'MAP, your aeronautical weather chart ! - Copyright ORBIFLY December 2007 - Disclaimer

ORBIFLY MET'MAP TEAM :

Programming & Development : Alexandra Zaïnal
Concept & Development : Baudouin d'Aumeries
Co-Development & Prog : Marc-Olivier Méhu
Technical & hardware support : Manuel Goepfert

Contact : metmap@orbifly.com




SOURCES & CREDITS :

   NOAA